Flight Track Log - Related Links

Times and Time Zones

All times are in EST time to prevent confusion due to time zone crossing. See the UAL502 flight status page for this flight to view local times or setup timezone preferences in your user account.

Time Position Orientation Groundspeed Altitude Reporting Facility
EST Latitude Longitude Course Direction KTS MPH feet Rate Location/Type
Mon 07:47:23 PM 37.6333 -122.3500 65° Northeast 172 198 1,100  Level Northern Cal TRACON
Mon 07:48:23 PM 37.6833 -122.3000 38° Northeast 225 259 3,700 2,800 Climbing Northern Cal TRACON
Mon 07:49:23 PM 37.7167 -122.2333 58° Northeast 264 304 6,700 2,653 Climbing Northern Cal TRACON
Mon 07:50:00 PM 37.6558 -122.2270 72° East  Level FlightAware Approximate
Mon 07:51:00 PM 37.7065 -122.0671 63° Northeast  Level FlightAware Approximate
Mon 07:51:42 PM 37.7931 -122.0075 67° East 333 383 12,500  Level Oakland Center
Mon 07:52:00 PM 37.7656 -121.9115 65° Northeast  Level FlightAware Approximate
Mon 07:52:44 PM 37.8261 -121.8847 71° East 366 421 15,100  Level Oakland Center
Mon 07:53:45 PM 37.8631 -121.7575 70° East 383 441 17,400 2,262 Climbing Oakland Center
Mon 07:54:46 PM 37.9042 -121.6139 70° East 402 463 19,700 2,016 Climbing Oakland Center
Mon 07:55:47 PM 37.9433 -121.4739 70° East 418 481 21,500 1,574 Climbing Oakland Center
Mon 07:56:48 PM 37.9839 -121.3300 70° East 432 497 22,900 1,377 Climbing Oakland Center
Mon 07:57:49 PM 38.0244 -121.1814 71° East 445 512 24,300 1,561 Climbing Oakland Center
Mon 07:58:51 PM 38.0653 -121.0292 71° East 460 529 26,100 1,707 Climbing Oakland Center
Mon 07:59:52 PM 38.0931 -120.8669 78° East 475 547 27,800 1,721 Climbing Oakland Center
Mon 08:00:53 PM 38.1183 -120.6664 81° East 483 556 29,600 1,623 Climbing Oakland Center
Mon 08:01:54 PM 38.1414 -120.4939 80° East 496 571 31,100 1,623 Climbing Oakland Center
Mon 08:02:55 PM 38.1628 -120.3250 81° East 490 564 32,900 1,623 Climbing Oakland Center
Mon 08:03:56 PM 38.1844 -120.1561 81° East 487 560 34,400 1,475 Climbing Oakland Center
Mon 08:04:57 PM 38.2058 -119.9861 81° East 487 560 35,900 1,377 Climbing Oakland Center
Mon 08:05:58 PM 38.2267 -119.8200 81° East 478 550 37,200 1,171 Climbing Oakland Center
Mon 08:07:00 PM 38.2494 -119.6550 80° East 475 547 38,300 878 Climbing Oakland Center
Mon 08:08:01 PM 38.2692 -119.4900 81° East 473 544 39,000 344 Climbing Oakland Center
Mon 08:09:02 PM 38.2931 -119.3047 81° East 472 543 39,000  Level Oakland Center
Mon 08:10:03 PM 38.3133 -119.1408 81° East 471 542 39,000  Level Oakland Center
Mon 08:11:04 PM 38.3333 -118.9744 81° East 476 548 39,000  Level Oakland Center
Mon 08:12:05 PM 38.3533 -118.8075 81° East 479 551 39,000  Level Oakland Center
Mon 08:13:06 PM 38.3733 -118.6389 81° East 483 556 39,000  Level Oakland Center
Mon 08:14:07 PM 38.3936 -118.4708 81° East 483 556 39,000  Level Oakland Center
Mon 08:15:08 PM 38.4106 -118.3036 83° East 480 552 39,000  Level Oakland Center
Mon 08:16:09 PM 38.4292 -118.1369 82° East 477 549 39,000  Level Oakland Center
Mon 08:17:10 PM 38.4494 -117.9583 82° East 476 548 39,000  Level Oakland Center
Mon 08:18:12 PM 38.4683 -117.7892 82° East 477 549 39,000  Level Oakland Center
Mon 08:19:12 PM 38.4850 -117.6225 83° East 473 544 39,000  Level Oakland Center
Mon 08:20:14 PM 38.5033 -117.4567 82° East 468 539 39,000  Level Oakland Center
Mon 08:21:15 PM 38.5208 -117.2931 82° East 463 533 39,000  Level Oakland Center
Mon 08:22:16 PM 38.5306 -117.1242 86° East 469 540 39,000  Level Oakland Center
Mon 08:22:46 PM 38.5347 -117.0231 87° East 470 541 39,000  Level Salt Lake Center
Mon 08:23:48 PM 38.5414 -116.8550 87° East 471 542 39,000  Level Salt Lake Center
Mon 08:24:18 PM 38.5461 -116.7883 85° East 470 541 39,000  Level Oakland Center
Mon 08:25:19 PM 38.5539 -116.6200 87° East 471 542 39,000  Level Oakland Center
Mon 08:25:51 PM 38.5578 -116.5203 87° East 469 540 39,000  Level Salt Lake Center
Mon 08:26:52 PM 38.5653 -116.3528 87° East 471 542 39,000  Level Salt Lake Center
Mon 08:27:54 PM 38.5722 -116.1878 87° East 466 536 39,000  Level Salt Lake Center
Mon 08:28:55 PM 38.5800 -116.0261 86° East 459 528 39,000  Level Salt Lake Center
Mon 08:29:57 PM 38.5864 -115.8636 87° East 457 526 39,000  Level Salt Lake Center
Mon 08:30:58 PM 38.5944 -115.6689 87° East 457 526 39,000  Level Salt Lake Center
Mon 08:32:00 PM 38.6003 -115.5050 87° East 461 531 39,000  Level Salt Lake Center
Mon 08:33:02 PM 38.6064 -115.3492 87° East 459 528 39,000  Level Salt Lake Center
Mon 08:34:03 PM 38.6136 -115.1825 87° East 469 540 39,000  Level Salt Lake Center
Mon 08:35:05 PM 38.6192 -115.0175 87° East 467 537 39,000  Level Salt Lake Center
Mon 08:36:06 PM 38.6244 -114.8517 88° East 467 537 39,000  Level Salt Lake Center
Mon 08:37:08 PM 38.6289 -114.6850 88° East 469 540 39,000  Level Salt Lake Center
Mon 08:38:09 PM 38.6356 -114.4867 87° East 468 539 39,000  Level Salt Lake Center
Mon 08:39:11 PM 38.6400 -114.3200 88° East 469 540 39,000  Level Salt Lake Center
Mon 08:40:12 PM 38.6447 -114.1539 88° East 468 539 39,000  Level Salt Lake Center
Mon 08:41:13 PM 38.6489 -113.9872 88° East 468 539 39,000  Level Salt Lake Center
Mon 08:42:15 PM 38.6525 -113.8217 88° East 467 537 39,000  Level Salt Lake Center
Mon 08:43:16 PM 38.6575 -113.6556 88° East 467 537 39,000  Level Salt Lake Center
Mon 08:44:18 PM 38.6603 -113.4911 89° East 464 534 39,000  Level Salt Lake Center
Mon 08:45:19 PM 38.6644 -113.3228 88° East 470 541 39,000  Level Salt Lake Center
Mon 08:46:21 PM 38.6664 -113.1556 89° East 471 542 39,000  Level Salt Lake Center
Mon 08:47:22 PM 38.6697 -112.9519 89° East 476 548 39,000  Level Salt Lake Center
Mon 08:48:24 PM 38.6719 -112.7839 89° East 473 544 39,000  Level Salt Lake Center
Mon 08:49:25 PM 38.6750 -112.6169 89° East 471 542 39,000  Level Salt Lake Center
Mon 08:50:27 PM 38.6769 -112.4483 89° East 472 543 39,000  Level Salt Lake Center
Mon 08:51:28 PM 38.6783 -112.2808 89° East 472 543 39,000  Level Salt Lake Center
Mon 08:52:30 PM 38.6806 -112.1117 89° East 474 545 39,000  Level Salt Lake Center
Mon 08:53:31 PM 38.6819 -111.9442 89° East 471 542 39,000  Level Salt Lake Center
Mon 08:54:33 PM 38.6828 -111.7753 90° East 474 545 39,000  Level Salt Lake Center
Mon 08:55:34 PM 38.6844 -111.6086 89° East 470 541 39,000 326 Level Salt Lake Center
Mon 08:57:37 PM 38.6850 -111.2381 90° East 474 545 40,000 587 Climbing Salt Lake Center
Mon 08:58:38 PM 38.6858 -111.0722 90° East 468 539 40,800 488 Climbing Salt Lake Center
Mon 08:59:40 PM 38.6847 -110.8981 90° East 466 536 41,000 98 Climbing Salt Lake Center
Mon 09:00:41 PM 38.6833 -110.7369 91° East 472 543 41,000  Level Salt Lake Center
Mon 09:01:43 PM 38.6825 -110.5767 90° East 472 543 41,000  Level Salt Lake Center
Mon 09:02:44 PM 38.6819 -110.3894 90° East 472 543 41,000  Level Salt Lake Center
Mon 09:03:46 PM 38.6814 -110.2306 90° East 470 541 41,000  Level Salt Lake Center
Mon 09:04:47 PM 38.6800 -110.0450 90° East 468 539 41,000  Level Salt Lake Center
Mon 09:05:48 PM 38.6778 -109.8844 91° East 471 542 41,000  Level Salt Lake Center
Mon 09:06:50 PM 38.6719 -109.6956 92° East 475 547 41,000  Level Salt Lake Center
Mon 09:07:51 PM 38.6658 -109.5356 93° East 473 544 41,000  Level Salt Lake Center
Mon 09:08:53 PM 38.6608 -109.3744 92° East 474 545 41,000  Level Salt Lake Center
Mon 09:09:54 PM 38.6539 -109.1864 93° East 475 547 41,000  Level Salt Lake Center
Mon 09:10:55 PM 38.6481 -109.0256 93° East 475 547 41,000  Level Salt Lake Center
Mon 09:11:57 PM 38.6406 -108.8361 93° East 478 550 41,000  Level Salt Lake Center
Mon 09:13:22 PM 38.6317 -108.5828 92° East 489 563 41,000  Level Denver Center
Mon 09:14:23 PM 38.6244 -108.4167 93° East 491 565 41,000  Level Denver Center
Mon 09:15:25 PM 38.6175 -108.2489 93° East 495 570 41,000  Level Denver Center
Mon 09:16:27 PM 38.6097 -108.0506 93° East 500 575 41,000  Level Denver Center
Mon 09:17:28 PM 38.6011 -107.8811 94° East 502 578 41,000  Level Denver Center
Mon 09:18:30 PM 38.5914 -107.6803 93° East 506 582 41,000  Level Denver Center
Mon 09:19:32 PM 38.5844 -107.5056 93° East 513 590 41,000  Level Denver Center
Mon 09:20:33 PM 38.5731 -107.3017 94° East 516 594 41,000  Level Denver Center
Mon 09:21:35 PM 38.5639 -107.1297 94° East 518 596 41,000  Level Denver Center
Mon 09:22:37 PM 38.5544 -106.9444 94° East 523 602 41,000  Level Denver Center
Mon 09:23:38 PM 38.5431 -106.7608 94° East 521 600 41,000  Level Denver Center
Mon 09:24:40 PM 38.5336 -106.5769 94° East 521 600 41,000  Level Denver Center
Mon 09:25:41 PM 38.5231 -106.3958 94° East 514 592 41,000  Level Denver Center
Mon 09:26:43 PM 38.5103 -106.1769 94° East 515 593 41,000  Level Denver Center
Mon 09:27:45 PM 38.5000 -106.0006 94° East 511 588 41,000  Level Denver Center
Mon 09:28:46 PM 38.4944 -105.7994 92° East 507 583 41,000  Level Denver Center
Mon 09:29:48 PM 38.4919 -105.6183 91° East 506 582 41,000  Level Denver Center
Mon 09:30:50 PM 38.4869 -105.4431 92° East 501 577 41,000  Level Denver Center
Mon 09:31:51 PM 38.4822 -105.2636 92° East 506 582 41,000  Level Denver Center
Mon 09:32:53 PM 38.4769 -105.0869 92° East 502 578 41,000  Level Denver Center
Mon 09:33:54 PM 38.4733 -104.9431 92° East 507 583 41,000  Level Denver Center
Mon 09:34:57 PM 38.4675 -104.7300 92° East 506 582 41,000  Level Denver Center
Mon 09:35:58 PM 38.4603 -104.5114 92° East 514 592 41,000  Level Denver Center
Mon 09:37:00 PM 38.4539 -104.3283 92° East 519 597 41,000  Level Denver Center
Mon 09:38:02 PM 38.4472 -104.1431 93° East 525 604 41,000  Level Denver Center
Mon 09:39:03 PM 38.4389 -103.9422 93° East 526 605 41,000  Level Denver Center
Mon 09:40:05 PM 38.4314 -103.7628 93° East 528 608 41,000  Level Denver Center
Mon 09:41:07 PM 38.4231 -103.5831 93° East 529 609 41,000  Level Denver Center
Mon 09:42:08 PM 38.4161 -103.4083 93° East 530 610 41,000 -146 Level Denver Center
Mon 09:43:10 PM 38.4086 -103.1989 93° East 532 612 40,700 -871 Descending Denver Center
Mon 09:44:12 PM 38.3967 -102.9858 94° East 540 621 39,200 -823 Descending Denver Center
Mon 09:45:14 PM 38.3889 -102.8008 93° East 545 627 39,000 -97 Descending Denver Center
Mon 09:46:16 PM 38.3778 -102.5869 94° East 542 624 39,000  Level Denver Center
Mon 09:47:17 PM 38.3692 -102.4033 93° East 543 625 39,000  Level Denver Center
Mon 09:48:19 PM 38.3558 -102.1869 94° East 548 631 39,000  Level Denver Center
Mon 09:49:21 PM 38.3467 -101.9997 94° East 552 635 39,000  Level Denver Center
Mon 09:50:22 PM 38.3439 -101.8156 91° East 544 626 39,000  Level Denver Center
Mon 09:51:24 PM 38.3789 -101.6036 78° East 544 626 39,000  Level Denver Center
Mon 09:52:26 PM 38.4131 -101.4244 76° East 543 625 39,000  Level Denver Center
Mon 09:53:27 PM 38.4531 -101.2153 76° East 542 624 39,000  Level Denver Center
Mon 09:54:29 PM 38.4864 -101.0347 77° East 544 626 39,000  Level Denver Center
Mon 09:55:31 PM 38.5183 -100.8542 77° East 543 625 39,000  Level Denver Center
Mon 09:56:32 PM 38.5575 -100.6414 77° East 547 629 39,000  Level Denver Center
Mon 09:57:34 PM 38.5900 -100.4611 77° East 544 626 39,000  Level Denver Center
Mon 09:58:46 PM 38.6308 -100.2161 78° East 543 625 39,000  Level Kansas City Center
Mon 09:59:47 PM 38.6622 -100.0356 77° East 543 625 39,000  Level Kansas City Center
Mon 10:00:46 PM 38.6931 -99.8556 78° East 541 623 39,000  Level Kansas City Center
Mon 10:01:48 PM 38.7297 -99.6439 77° East 544 626 39,000  Level Kansas City Center
Mon 10:02:49 PM 38.7558 -99.4878 78° East 544 626 39,000  Level Kansas City Center
Mon 10:03:51 PM 38.7950 -99.2606 77° East 545 627 39,000  Level Kansas City Center
Mon 10:04:51 PM 38.8261 -99.0711 78° East 543 625 39,000  Level Kansas City Center
Mon 10:05:52 PM 38.8575 -98.8794 78° East 549 632 39,000  Level Kansas City Center
Mon 10:06:55 PM 38.8897 -98.6867 78° East 550 633 39,000  Level Kansas City Center
Mon 10:07:56 PM 38.9214 -98.4953 78° East 549 632 39,000  Level Kansas City Center
Mon 10:08:56 PM 38.9522 -98.3022 78° East 550 633 39,000  Level Kansas City Center
Mon 10:09:57 PM 38.9825 -98.1094 79° East 550 633 39,000  Level Kansas City Center
Mon 10:10:57 PM 39.0086 -97.9150 80° East 550 633 39,000  Level Kansas City Center
Mon 10:11:58 PM 39.0317 -97.6989 82° East 552 635 39,000  Level Kansas City Center
Mon 10:13:02 PM 39.0517 -97.5108 82° East 554 638 39,000  Level Kansas City Center
Mon 10:14:03 PM 39.0717 -97.3219 82° East 555 639 39,000  Level Kansas City Center
Mon 10:15:03 PM 39.0939 -97.1025 82° East 554 638 39,000  Level Kansas City Center
Mon 10:16:04 PM 39.1142 -96.9131 82° East 557 641 39,000  Level Kansas City Center
Mon 10:17:03 PM 39.1325 -96.7236 83° East 557 641 39,000  Level Kansas City Center
Mon 10:18:07 PM 39.1550 -96.5011 83° East 560 644 39,000  Level Kansas City Center
Mon 10:19:07 PM 39.1722 -96.3086 83° East 564 649 39,000  Level Kansas City Center
Mon 10:20:07 PM 39.1903 -96.1181 83° East 562 647 39,000  Level Kansas City Center
Mon 10:21:09 PM 39.2106 -95.8958 83° East 560 644 39,000  Level Kansas City Center
Mon 10:22:11 PM 39.2278 -95.7058 83° East 557 641 39,000  Level Kansas City Center
Mon 10:23:09 PM 39.2467 -95.4800 84° East 564 649 39,000  Level Kansas City Center
Mon 10:24:12 PM 39.2639 -95.2861 83° East 567 652 39,000  Level Kansas City Center
Mon 10:25:12 PM 39.2806 -95.0836 84° East 558 642 39,000  Level Kansas City Center
Mon 10:26:15 PM 39.2975 -94.8903 83° East 563 648 39,000  Level Kansas City Center
Mon 10:27:15 PM 39.3347 -94.7058 75° East 557 641 39,000  Level Kansas City Center
Mon 10:28:14 PM 39.3847 -94.4922 73° East 557 641 39,000  Level Kansas City Center
Mon 10:29:17 PM 39.4281 -94.3081 73° East 559 643 39,000  Level Kansas City Center
Mon 10:30:16 PM 39.4775 -94.0925 73° East 560 644 39,000  Level Kansas City Center
Mon 10:31:18 PM 39.5103 -93.9053 77° East 558 642 39,000  Level Kansas City Center
Mon 10:32:19 PM 39.5267 -93.7081 84° East 563 648 39,000  Level Kansas City Center
Mon 10:33:18 PM 39.5486 -93.5078 82° East 564 649 39,000  Level Kansas City Center
Mon 10:34:20 PM 39.5678 -93.3092 83° East 561 646 39,000  Level Kansas City Center
Mon 10:35:20 PM 39.5867 -93.1089 83° East 563 648 39,000  Level Kansas City Center
Mon 10:36:21 PM 39.6022 -92.9075 84° East 567 652 39,000  Level Kansas City Center
Mon 10:37:25 PM 39.6192 -92.7050 84° East 569 655 39,000  Level Kansas City Center
Mon 10:38:25 PM 39.6397 -92.4681 83° East 562 647 39,000  Level Kansas City Center
Mon 10:39:26 PM 39.6558 -92.2689 84° East 562 647 39,000  Level Kansas City Center
Mon 10:40:29 PM 39.6714 -92.0689 84° East 562 647 39,000  Level Kansas City Center
Mon 10:41:28 PM 39.6886 -91.8656 84° East 570 656 39,000  Level Kansas City Center
Mon 10:42:26 PM 39.7042 -91.6636 84° East 569 655 39,000  Level Kansas City Center
Mon 10:43:27 PM 39.7192 -91.4622 84° East 566 651 39,000  Level Kansas City Center
Mon 10:44:28 PM 39.7353 -91.2386 85° East 565 650 39,000  Level Kansas City Center
Mon 10:45:29 PM 39.7503 -91.0344 84° East 567 652 39,000  Level Kansas City Center
Mon 10:46:30 PM 39.7636 -90.8447 85° East 571 657 39,000  Level Kansas City Center
Mon 10:47:30 PM 39.7786 -90.6425 84° East 568 654 39,000  Level Kansas City Center
Mon 10:48:32 PM 39.7917 -90.4397 85° East 566 651 39,000  Level Kansas City Center
Mon 10:49:32 PM 39.8053 -90.2356 85° East 568 654 39,000  Level Kansas City Center
Mon 10:50:36 PM 39.8211 -89.9914 85° East 569 655 39,000  Level Kansas City Center
Mon 10:51:34 PM 39.8339 -89.7883 85° East 568 654 39,000  Level Kansas City Center
Mon 10:52:35 PM 39.8414 -89.5847 87° East 568 654 39,000  Level Kansas City Center
Mon 10:53:35 PM 39.8417 -89.3811 90° East 567 652 39,000  Level Kansas City Center
Mon 10:54:36 PM 39.8425 -89.1756 90° East 570 656 39,000  Level Kansas City Center
Mon 10:55:37 PM 39.8439 -88.9697 89° East 571 657 39,000  Level Kansas City Center
Mon 10:56:41 PM 39.8433 -88.7644 90° East 571 657 39,000  Level Kansas City Center
Mon 10:57:39 PM 39.8436 -88.5594 90° East 570 656 39,000  Level Kansas City Center
Mon 10:58:41 PM 39.8436 -88.3528 90° East 571 657 39,000  Level Kansas City Center
Mon 10:59:41 PM 39.8419 -88.1458 91° East 574 661 39,000  Level Kansas City Center
Mon 11:00:42 PM 39.8389 -87.9406 91° East 571 657 39,000  Level Kansas City Center
Mon 11:01:42 PM 39.8350 -87.6983 91° East 574 661 39,000  Level Indianapolis Center
Mon 11:02:43 PM 39.8342 -87.4908 90° East 574 661 39,000  Level Indianapolis Center
Mon 11:03:07 PM 39.8414 -87.4083 83° East 573 659 39,000  Level Indianapolis Center
Mon 11:04:08 PM 39.8914 -87.2114 72° East 572 658 39,000  Level Indianapolis Center
Mon 11:05:08 PM 39.9567 -87.0236 66° East 570 656 39,000  Level Indianapolis Center
Mon 11:06:09 PM 40.0211 -86.8344 66° East 569 655 39,000  Level Indianapolis Center
Mon 11:07:10 PM 40.0847 -86.6444 66° East 570 656 39,000  Level Indianapolis Center
Mon 11:08:11 PM 40.1492 -86.4528 66° East 571 657 39,000  Level Indianapolis Center
Mon 11:09:12 PM 40.2081 -86.2586 68° East 571 657 39,000  Level Indianapolis Center
Mon 11:10:13 PM 40.2692 -86.0661 67° East 571 657 39,000  Level Indianapolis Center
Mon 11:11:14 PM 40.3303 -85.8744 67° East 571 657 39,000  Level Indianapolis Center
Mon 11:12:22 PM 40.4014 -85.6431 68° East 569 655 39,000  Level Chicago Center
Mon 11:13:23 PM 40.4611 -85.4522 68° East 568 654 39,000  Level Chicago Center
Mon 11:14:23 PM 40.5211 -85.2586 68° East 572 658 39,000  Level Chicago Center
Mon 11:15:18 PM 40.5675 -85.1050 68° East 572 658 39,000  Level Indianapolis Center
Mon 11:16:25 PM 40.6381 -84.8736 68° East 569 655 39,000  Level Chicago Center
Mon 11:17:26 PM 40.6972 -84.6769 68° East 572 658 39,000  Level Chicago Center
Mon 11:18:26 PM 40.7558 -84.4825 68° East 574 661 39,000  Level Chicago Center
Mon 11:19:27 PM 40.8133 -84.2900 68° East 573 659 39,000  Level Chicago Center
Mon 11:20:28 PM 40.8708 -84.0944 69° East 572 658 39,000  Level Chicago Center
Mon 11:21:29 PM 40.9269 -83.9006 69° East 572 658 39,000  Level Chicago Center
Mon 11:22:29 PM 40.9686 -83.6981 75° East 575 662 39,000  Level Chicago Center
Mon 11:23:32 PM 41.0083 -83.4644 77° East 574 661 39,000  Level Cleveland Center
Mon 11:24:32 PM 41.0456 -83.2578 77° East 574 661 39,000  Level Cleveland Center
Mon 11:25:33 PM 41.0839 -83.0589 76° East 574 661 39,000  Level Cleveland Center
Mon 11:26:34 PM 41.1219 -82.8522 76° East 574 661 39,000  Level Cleveland Center
Mon 11:27:34 PM 41.1583 -82.6442 77° East 574 661 39,000  Level Cleveland Center
Mon 11:28:35 PM 41.1953 -82.4347 77° East 576 663 39,000  Level Cleveland Center
Mon 11:29:36 PM 41.2311 -82.2253 77° East 577 664 39,000  Level Cleveland Center
Mon 11:30:37 PM 41.2639 -82.0294 77° East 577 664 39,000  Level Cleveland Center
Mon 11:31:37 PM 41.3028 -81.7789 78° East 577 664 39,000  Level Cleveland Center
Mon 11:32:38 PM 41.3353 -81.5722 78° East 576 663 39,000  Level Cleveland Center
Mon 11:33:39 PM 41.3658 -81.3708 79° East 575 662 39,000  Level Cleveland Center
Mon 11:34:39 PM 41.3989 -81.1581 78° East 576 663 39,000  Level Cleveland Center
Mon 11:35:40 PM 41.4322 -80.9450 78° East 582 670 39,000  Level Cleveland Center
Mon 11:36:41 PM 41.4672 -80.7311 78° East 582 670 39,000  Level Cleveland Center
Mon 11:37:41 PM 41.4992 -80.5181 79° East 582 670 39,000  Level Cleveland Center
Mon 11:38:42 PM 41.5303 -80.3050 79° East 582 670 39,000  Level Cleveland Center
Mon 11:39:43 PM 41.5622 -80.0900 79° East 586 674 39,000  Level Cleveland Center
Mon 11:40:43 PM 41.5919 -79.8864 79° East 586 674 39,000  Level Cleveland Center
Mon 11:41:44 PM 41.6211 -79.6731 80° East 586 674 39,000  Level Cleveland Center
Mon 11:42:45 PM 41.6517 -79.4583 79° East 586 674 39,000  Level Cleveland Center
Mon 11:43:45 PM 41.6806 -79.2494 79° East 586 674 39,000  Level Cleveland Center
Mon 11:44:46 PM 41.7097 -79.0347 80° East 586 674 39,000  Level Cleveland Center
Mon 11:45:47 PM 41.7394 -78.8114 80° East 587 676 39,000  Level Cleveland Center
Mon 11:46:48 PM 41.7681 -78.5956 80° East 587 676 39,000  Level Cleveland Center
Mon 11:47:48 PM 41.7747 -78.3814 88° East 571 657 39,000  Level Cleveland Center
Mon 11:48:49 PM 41.7586 -78.1697 96° East 568 654 39,000  Level Cleveland Center
Mon 11:49:50 PM 41.7475 -77.9575 94° East 569 655 39,000  Level Cleveland Center
Mon 11:50:50 PM 41.7319 -77.7447 96° East 570 656 39,000  Level Cleveland Center
Mon 11:51:43 PM 41.7156 -77.5486 96° East 571 657 39,000  Level New York Center
Mon 11:52:43 PM 41.6942 -77.3353 98° East 571 657 39,000 -350 Level New York Center
Mon 11:53:43 PM 41.6678 -77.1300 100° East 565 650 38,300 -1,250 Descending New York Center
Mon 11:54:43 PM 41.6200 -76.9311 108° East 565 650 36,500 -2,100 Descending New York Center
Mon 11:55:43 PM 41.5600 -76.7178 111° Southeast 560 644 34,100 -2,050 Descending New York Center
Mon 11:56:43 PM 41.5103 -76.5414 111° Southeast 555 639 32,400 -1,850 Descending New York Center
Mon 11:57:43 PM 41.4500 -76.3231 110° East 562 647 30,400 -2,050 Descending New York Center
Mon 11:58:43 PM 41.3967 -76.1250 110° East 562 647 28,300 -2,000 Descending New York Center
Mon 11:59:43 PM 41.3422 -75.9383 111° Southeast 555 639 26,400 -1,750 Descending New York Center
Tue 12:00:43 AM 41.2936 -75.7608 110° East 537 618 24,800 -1,350 Descending New York Center
Tue 12:01:43 AM 41.2383 -75.5911 113° Southeast 511 588 23,700 -900 Descending New York Center
Tue 12:02:43 AM 41.1842 -75.4300 114° Southeast 489 563 23,000 -450 Descending New York Center
Tue 12:03:43 AM 41.1322 -75.2694 113° Southeast 483 556 22,800 -1,250 Descending New York Center
Tue 12:04:43 AM 41.0778 -75.1117 115° Southeast 472 543 20,500 -1,900 Descending New York Center
Tue 12:05:43 AM 41.0269 -74.9600 114° Southeast 466 536 19,000 -750 Descending New York Center
Tue 12:06:43 AM 40.9869 -74.7925 108° East 456 525 19,000  Level New York Center
Tue 12:07:43 AM 40.9711 -74.6406 98° East 466 536 19,000  Level New York Center
Tue 12:08:43 AM 40.9503 -74.4469 98° East 478 550 19,000  Level New York Center
Tue 12:09:19 AM 40.9333 -74.3500 103° East 476 548 19,000  Level New York TRACON
Tue 12:10:37 AM 40.8667 -74.1667 116° Southeast 400 460 19,000 -182 Level New York TRACON
Tue 12:11:31 AM 40.8000 -74.0833 137° Southeast 383 441 18,600 -1,579 Descending New York TRACON
Tue 12:12:31 AM 40.7167 -73.9833 138° Southeast 379 436 16,000 -2,550 Descending New York TRACON
Tue 12:13:31 AM 40.6333 -73.9000 143° Southeast 374 430 13,500 -1,944 Descending New York TRACON
Tue 12:14:19 AM 40.5833 -73.8500 143° Southeast 331 381 12,500 -1,474 Descending New York TRACON
Tue 12:15:25 AM 40.5000 -73.8167 163° South 242 278 10,700 -2,286 Descending New York TRACON
Tue 12:16:25 AM 40.4333 -73.7833 159° South 265 305 7,700 -2,350 Descending New York TRACON
Tue 12:17:25 AM 40.4000 -73.6833 114° Southeast 295 339 6,000 -1,250 Descending New York TRACON
Tue 12:18:25 AM 40.3833 -73.6000 105° East 272 313 5,200 -1,143 Descending New York TRACON
Tue 12:19:31 AM 40.4500 -73.5667 21° North 212 244 3,600 -1,250 Descending New York TRACON
Tue 12:20:25 AM 40.5000 -73.5500 14° North 206 237 2,700 -789 Descending New York TRACON
Tue 12:21:25 AM 40.5500 -73.5667 346° North 192 221 2,100 -350 Descending New York TRACON
Tue 12:22:25 AM 40.5833 -73.6167 311° West 180 207 2,000 -111 Descending New York TRACON
Tue 12:23:13 AM 40.6000 -73.6667 294° West 159 183 1,900 -412 Descending New York TRACON
Tue 12:24:07 AM 40.6167 -73.7000 303° West 133 153 1,300 -700 Descending New York TRACON
Tue 12:25:13 AM 40.6333 -73.7500 294° West 113 130 500 -727 Descending New York TRACON

Login

Don't have an account? Register now (free) for customized features, flight alerts, and more!